Flight Track Log - Related Links

Times and Time Zones

All times are in EDT time to prevent confusion due to time zone crossing. See the SWA43 flight status page for this flight to view local times or setup timezone preferences in your user account.

Time Position Orientation Groundspeed Altitude Reporting Facility
EDT Latitude Longitude Course Direction KTS MPH feet Rate Location/Type
Tue 07:17:42 PM 32.8167 -96.8333 175° South 161 185 2,200  Level Dallas / Fort Worth TRACON
Tue 07:18:24 PM 32.8000 -96.7833 112° Southeast 239 275 3,600 2,667 Climbing Dallas / Fort Worth TRACON
Tue 07:19:12 PM 32.7569 -96.7453 143° Southeast 256 295 6,200 3,327 Climbing Fort Worth Center
Tue 07:20:14 PM 32.6936 -96.7081 154° Southeast 274 315 9,700 1,839 Climbing Fort Worth Center
Tue 07:21:16 PM 32.6119 -96.7383 197° South 302 348 10,000 145 Climbing Fort Worth Center
Tue 07:22:18 PM 32.5364 -96.7850 208° Southwest 308 354 10,000 1,355 Level Fort Worth Center
Tue 07:23:00 PM 32.4819 -96.9699 175° South  Level FlightAware Approximate
Tue 07:23:20 PM 32.4550 -96.8344 207° Southwest 305 351 12,800  Level Fort Worth Center
Tue 07:24:23 PM 32.3739 -96.8847 208° Southwest 329 379 15,800 2,784 Climbing Fort Worth Center
Tue 07:25:25 PM 32.2775 -96.9378 205° Southwest 353 406 18,600 2,419 Climbing Fort Worth Center
Tue 07:26:27 PM 32.1867 -96.9192 170° South 379 436 20,800 2,129 Climbing Fort Worth Center
Tue 07:27:29 PM 32.0594 -96.8983 172° South 381 438 23,000 1,065 Climbing Fort Worth Center
Tue 07:28:31 PM 31.9553 -96.8908 177° South 366 421 23,000  Level Fort Worth Center
Tue 07:29:33 PM 31.8608 -96.9328 201° Southwest 363 418 23,000 480 Level Fort Worth Center
Tue 07:30:36 PM 31.7656 -96.9711 199° South 361 415 24,000 480 Climbing Fort Worth Center
Tue 07:31:38 PM 31.6681 -97.0108 199° South 367 422 24,000  Level Fort Worth Center
Tue 07:32:40 PM 31.5708 -97.0506 199° South 369 425 24,000 629 Level Fort Worth Center
Tue 07:33:42 PM 31.4731 -97.0903 199° South 371 427 25,300 968 Climbing Fort Worth Center
Tue 07:34:44 PM 31.3544 -97.1383 199° South 374 430 26,000 339 Climbing Fort Worth Center
Tue 07:35:46 PM 31.2514 -97.1800 199° South 392 451 26,000  Level Fort Worth Center
Tue 07:36:48 PM 31.1436 -97.1967 188° South 402 463 26,000  Level Fort Worth Center
Tue 07:37:51 PM 31.0575 -97.1097 139° Southeast 406 467 26,000 -321 Level Fort Worth Center
Tue 07:38:40 PM 30.9753 -97.0700 157° South 401 461 25,400 -865 Descending Houston Center
Tue 07:39:42 PM 30.8661 -97.0478 170° South 417 480 24,400 -677 Descending Houston Center
Tue 07:40:44 PM 30.7939 -96.9483 130° Southeast 407 468 24,000 -194 Descending Houston Center
Tue 07:41:46 PM 30.7203 -96.8558 133° Southeast 395 455 24,000 -439 Level Houston Center
Tue 07:42:47 PM 30.6336 -96.7436 132° Southeast 391 450 23,100 -1,366 Descending Houston Center
Tue 07:43:49 PM 30.5622 -96.6506 132° Southeast 388 447 21,200 -1,790 Descending Houston Center
Tue 07:44:51 PM 30.4933 -96.5611 132° Southeast 375 432 19,400 -1,846 Descending Houston Center
Tue 07:45:07 PM 30.4700 -96.5344 135° Southeast 369 425 18,800 -1,742 Descending Houston Center
Tue 07:45:53 PM 30.4267 -96.4756 130° Southeast 364 419 17,600 -1,722 Descending Houston Center
Tue 07:46:55 PM 30.3617 -96.3931 132° Southeast 350 403 15,700 -1,742 Descending Houston Center
Tue 07:47:57 PM 30.2989 -96.3119 132° Southeast 340 391 14,000 -1,920 Descending Houston Center
Tue 07:48:10 PM 30.2728 -96.2803 134° Southeast 333 383 13,300 -1,770 Descending Houston Center
Tue 07:48:58 PM 30.2375 -96.2328 131° Southeast 334 384 12,200 -709 Descending Houston Center
Tue 07:50:00 PM 30.1483 -96.1764 151° Southeast 308 354 12,000 -97 Descending Houston Center
Tue 07:51:02 PM 30.0836 -96.1414 155° Southeast 302 348 12,000  Level Houston Center
Tue 07:52:04 PM 29.9928 -96.0906 154° Southeast 302 348 12,000  Level Houston Center
Tue 07:53:04 PM 29.9194 -96.0475 153° Southeast 299 344 12,000  Level Houston Center
Tue 07:54:08 PM 29.8425 -96.0036 154° Southeast 301 346 12,000  Level Houston Center
Tue 07:54:18 PM 29.8267 -95.9956 156° South 302 348 12,000 -1,180 Level Houston Center
Tue 07:55:09 PM 29.7692 -95.9586 151° Southeast 301 346 10,800 -1,062 Descending Houston Center
Tue 07:56:11 PM 29.7003 -95.9114 149° Southeast 294 338 10,000 -952 Descending Houston Center
Tue 07:57:15 PM 29.6483 -95.8283 126° Southeast 294 338 8,800 -1,248 Descending Houston Center
Tue 07:58:16 PM 29.6444 -95.7350 93° East 289 333 7,400 -1,279 Descending Houston Center
Tue 07:59:17 PM 29.6428 -95.6453 91° East 289 333 6,200 -984 Descending Houston Center
Tue 08:00:18 PM 29.6628 -95.5647 74° East 263 303 5,400 -689 Descending Houston Center
Tue 08:01:19 PM 29.6833 -95.4900 72° East 218 251 4,800 -1,033 Descending Houston Center
Tue 08:02:20 PM 29.7003 -95.4231 74° East 205 236 3,300 -1,366 Descending Houston Center
Tue 08:03:22 PM 29.7133 -95.3614 76° East 192 221 2,000 -1,070 Descending Houston Center
Tue 08:04:29 PM 29.6828 -95.3242 133° Southeast 128 147 1,000 -787 Descending Houston Center
Tue 08:05:24 PM 29.6594 -95.2983 136° Southeast 120 138 400 -450 Descending Houston Center
Tue 08:06:29 PM 29.6353 -95.2672 132° Southeast 129 148 100 -277 Descending Houston Center

Login

Don't have an account? Register now (free) for customized features, flight alerts, and more!